Time;durP1;ratioP1;P1;durP2;ratioP2;P2;SDS_P1;SDS_P2;PMS_P1;PMS_P2;Temp;Humidity;BMP_temperature;BMP_pressure;BME280_temperature;BME280_humidity;BME280_pressure;Samples;Min_cycle;Max_cycle;Signal;HPM_P1;HPM_P2
2022/01/17 00:02:02;;;;;;;14.07;3.35;;;;;;;11.93;56.41;102485.09;4995247;28;20377;-82
2022/01/17 00:04:28;;;;;;;19.95;3.33;;;;;;;11.68;57.56;102489.53;4995252;28;20062;-82
2022/01/17 00:06:53;;;;;;;12.68;2.30;;;;;;;11.34;57.83;102484.72;4995076;28;20112;-82
2022/01/17 00:09:18;;;;;;;15.55;3.10;;;;;;;11.45;60.12;102486.94;4995405;28;20045;-83
2022/01/17 00:11:47;;;;;;;12.18;2.40;;;;;;;11.62;58.38;102496.81;4995010;28;20022;-83
2022/01/17 00:14:17;;;;;;;15.80;2.92;;;;;;;11.87;58.74;102500.19;4995095;28;20469;-82
2022/01/17 00:16:49;;;;;;;27.73;4.15;;;;;;;11.13;56.58;102503.94;4993769;28;20022;-83
2022/01/17 00:20:07;;;;;;;12.80;3.10;;;;;;;11.19;58.32;102506.34;4993560;28;20034;-82
2022/01/17 00:22:04;;;;;;;15.95;3.20;;;;;;;11.79;58.00;102507.53;4994249;28;20042;-82
2022/01/17 00:24:29;;;;;;;11.15;2.90;;;;;;;11.02;56.25;102494.66;4993659;28;20030;-82
2022/01/17 00:26:55;;;;;;;17.08;3.15;;;;;;;10.92;55.94;102509.06;4994696;28;20392;-82
2022/01/17 00:29:20;;;;;;;12.07;2.58;;;;;;;10.71;57.35;102503.63;4975499;28;20381;-82
2022/01/17 00:31:46;;;;;;;13.50;3.45;;;;;;;10.76;57.57;102502.63;4975457;28;20473;-82
2022/01/17 00:34:11;;;;;;;12.20;2.83;;;;;;;11.06;57.17;102506.78;4975284;28;20070;-82
2022/01/17 00:36:37;;;;;;;12.15;2.88;;;;;;;11.05;57.76;102498.94;4975491;28;20034;-82
2022/01/17 00:39:02;;;;;;;16.58;3.72;;;;;;;11.16;56.37;102506.44;4975306;28;20029;-82
2022/01/17 00:41:28;;;;;;;23.90;3.65;;;;;;;10.85;56.59;102502.31;4975320;28;20030;-82
2022/01/17 00:43:53;;;;;;;16.95;2.95;;;;;;;10.78;57.85;102500.78;4975241;28;20023;-82
2022/01/17 00:46:19;;;;;;;12.90;3.30;;;;;;;10.62;57.69;102503.94;4975143;28;20474;-82
2022/01/17 00:48:44;;;;;;;14.70;3.05;;;;;;;11.03;57.56;102500.78;4975020;28;20069;-82
2022/01/17 00:51:09;;;;;;;15.60;2.78;;;;;;;10.83;57.02;102498.88;4974831;28;20034;-82
2022/01/17 00:53:37;;;;;;;14.00;2.58;;;;;;;11.00;57.88;102496.50;4973518;28;20118;-82
2022/01/17 00:56:04;;;;;;;20.40;3.58;;;;;;;10.87;57.85;102497.84;4975030;28;20106;-82
2022/01/17 00:58:29;;;;;;;18.42;3.42;;;;;;;10.69;57.41;102497.59;4986855;28;20044;-82
2022/01/17 01:00:54;;;;;;;19.50;3.40;;;;;;;11.00;58.27;102495.63;4994238;28;20026;-82
2022/01/17 01:03:21;;;;;;;17.25;3.70;;;;;;;11.12;56.33;102495.19;4994108;28;20420;-82
2022/01/17 01:05:46;;;;;;;16.33;4.18;;;;;;;10.80;57.36;102499.84;4994346;28;20037;-82
2022/01/17 01:08:12;;;;;;;15.80;3.25;;;;;;;10.51;59.00;102506.97;4994169;28;20039;-82
2022/01/17 01:10:37;;;;;;;12.68;3.65;;;;;;;10.58;59.09;102509.38;4994204;28;20031;-82
2022/01/17 01:13:03;;;;;;;13.38;2.80;;;;;;;10.88;58.03;102502.19;4993843;28;20037;-82
2022/01/17 01:18:14;;;;;;;16.38;3.33;;;;;;;10.88;57.33;102510.06;4994140;28;20084;-82
2022/01/17 01:28:39;;;;;;;13.15;2.78;;;;;;;11.76;54.85;102520.81;4977560;28;20551;-82
2022/01/17 01:31:11;;;;;;;11.43;2.83;;;;;;;10.93;56.80;102516.03;4974351;28;20031;-82
2022/01/17 01:33:40;;;;;;;;;;;;;;;10.66;56.60;102521.34;4974575;28;20223;-82
2022/01/17 01:36:13;;;;;;;20.02;3.25;;;;;;;10.45;57.77;102520.31;4974199;28;19936;-82
2022/01/17 01:38:41;;;;;;;13.82;3.25;;;;;;;10.43;56.46;102516.03;4972833;28;20425;-82
2022/01/17 01:41:06;;;;;;;12.57;2.95;;;;;;;10.54;57.19;102529.63;4974105;28;20029;-82
2022/01/17 01:43:32;;;;;;;11.65;2.75;;;;;;;10.59;57.63;102530.34;4972861;28;20027;-82
2022/01/17 01:46:00;;;;;;;16.65;3.08;;;;;;;10.94;58.67;102532.63;4974126;28;20034;-82
2022/01/17 01:48:27;;;;;;;13.50;3.22;;;;;;;10.75;56.46;102540.34;4974260;28;20031;-82
2022/01/17 01:50:52;;;;;;;8.13;2.80;;;;;;;10.48;58.35;102541.19;4974009;28;20026;-82
2022/01/17 01:53:18;;;;;;;12.63;2.88;;;;;;;10.77;57.34;102547.25;4973845;28;20081;-82
2022/01/17 01:55:44;;;;;;;15.95;2.83;;;;;;;10.80;59.32;102546.25;4973817;28;20031;-82
2022/01/17 01:58:10;;;;;;;17.05;3.22;;;;;;;10.79;56.39;102539.31;4973623;28;20026;-82
2022/01/17 02:00:36;;;;;;;13.20;2.80;;;;;;;10.61;56.79;102536.41;4973632;28;20544;-82
2022/01/17 02:03:02;;;;;;;17.20;3.33;;;;;;;10.87;59.40;102542.53;4973199;28;20085;-82
2022/01/17 02:05:27;;;;;;;7.97;2.50;;;;;;;10.54;57.04;102534.03;4973753;28;20027;-82
2022/01/17 02:07:53;;;;;;;12.35;2.53;;;;;;;10.62;57.01;102538.09;4973647;28;20438;-82
2022/01/17 02:10:18;;;;;;;13.88;3.22;;;;;;;10.32;59.85;102540.84;4973462;28;20027;-82
2022/01/17 02:12:44;;;;;;;20.75;4.65;;;;;;;10.30;59.13;102539.19;4973383;28;20018;-82
2022/01/17 02:15:16;;;;;;;21.30;3.38;;;;;;;10.39;59.07;102540.66;4973556;28;20441;-82
2022/01/17 02:17:53;;;;;;;14.30;3.13;;;;;;;9.88;59.40;102543.09;4972173;28;20434;-82
2022/01/17 02:20:21;;;;;;;14.02;2.95;;;;;;;10.18;58.50;102540.41;4972136;28;20085;-82
2022/01/17 02:22:48;;;;;;;15.70;3.17;;;;;;;10.05;58.64;102536.44;4973334;28;20022;-82
2022/01/17 02:25:14;;;;;;;13.52;2.80;;;;;;;10.14;58.98;102536.16;4973486;28;20026;-82
2022/01/17 02:27:39;;;;;;;13.85;2.88;;;;;;;10.38;58.61;102534.53;4982906;28;20041;-82
2022/01/17 02:30:06;;;;;;;14.60;3.28;;;;;;;10.28;57.93;102528.69;4981478;28;20037;-82
2022/01/17 02:32:31;;;;;;;17.63;3.28;;;;;;;10.16;56.85;102534.34;4973164;28;20039;-82
2022/01/17 02:35:23;;;;;;;13.77;3.05;;;;;;;9.97;56.73;102526.19;4973201;28;20031;-82
2022/01/17 02:37:49;;;;;;;;;;;;;;;10.17;56.77;102525.59;4972510;28;20071;-82
2022/01/17 02:40:17;;;;;;;9.15;2.17;;;;;;;10.01;56.72;102540.09;4973222;28;19914;-82
2022/01/17 02:42:44;;;;;;;13.50;2.60;;;;;;;10.07;57.08;102534.63;4973117;28;20026;-82
2022/01/17 02:45:19;;;;;;;14.52;3.17;;;;;;;10.74;57.04;102536.81;4971888;28;20026;-82
2022/01/17 02:47:45;;;;;;;15.82;2.85;;;;;;;10.93;55.85;102531.78;4973136;28;20015;-82
2022/01/17 02:50:11;;;;;;;13.88;2.90;;;;;;;11.06;57.01;102530.44;4973043;28;20089;-82
2022/01/17 02:52:36;;;;;;;12.48;2.65;;;;;;;10.37;56.24;102537.22;4972851;28;20027;-81
2022/01/17 02:55:02;;;;;;;17.02;2.78;;;;;;;10.17;57.70;102538.72;4972992;28;20117;-82
2022/01/17 02:57:30;;;;;;;12.32;2.80;;;;;;;10.20;58.56;102533.34;4980591;28;20035;-81
2022/01/17 02:59:56;;;;;;;15.63;3.10;;;;;;;10.39;58.89;102540.66;4992307;28;20026;-82
2022/01/17 03:02:21;;;;;;;13.77;2.22;;;;;;;11.04;56.71;102548.03;4992261;28;20386;-82
2022/01/17 03:04:46;;;;;;;15.25;3.10;;;;;;;10.46;55.55;102555.28;4991128;28;20775;-82
2022/01/17 03:07:12;;;;;;;10.68;2.30;;;;;;;10.42;56.10;102551.91;4992281;28;20030;-82
2022/01/17 03:09:46;;;;;;;9.20;2.58;;;;;;;10.25;56.94;102547.19;4979919;28;20069;-81
2022/01/17 03:12:12;;;;;;;15.50;2.42;;;;;;;9.88;56.90;102555.38;4973728;28;20026;-82
2022/01/17 03:14:38;;;;;;;11.43;2.80;;;;;;;9.54;58.09;102553.75;4973562;28;20035;-82
2022/01/17 03:17:03;;;;;;;13.20;2.58;;;;;;;9.63;57.12;102556.09;4977074;28;20027;-82
2022/01/17 03:19:29;;;;;;;14.70;2.85;;;;;;;9.75;56.83;102556.63;4976601;28;20023;-82
2022/01/17 03:21:54;;;;;;;15.75;3.03;;;;;;;9.30;58.30;102560.53;4976659;28;20030;-82
2022/01/17 03:24:19;;;;;;;10.35;2.70;;;;;;;9.63;57.62;102557.84;4976639;28;20049;-82
2022/01/17 03:26:45;;;;;;;13.52;2.88;;;;;;;9.73;58.21;102568.06;4976561;28;20026;-82
2022/01/17 03:29:10;;;;;;;11.35;2.55;;;;;;;10.14;57.58;102559.78;4976509;28;20054;-82
2022/01/17 03:31:36;;;;;;;9.68;2.40;;;;;;;10.01;57.08;102551.47;4975347;28;20033;-82
2022/01/17 03:34:01;;;;;;;15.45;2.90;;;;;;;9.75;58.27;102569.75;4976767;28;20043;-82
2022/01/17 03:36:27;;;;;;;12.18;2.85;;;;;;;10.02;57.51;102570.69;4976470;28;20034;-82
2022/01/17 03:38:54;;;;;;;9.52;2.75;;;;;;;10.00;57.28;102575.13;4975105;28;20034;-82
2022/01/17 03:41:19;;;;;;;14.00;2.33;;;;;;;9.98;56.66;102580.41;4976313;28;20495;-82
2022/01/17 03:43:45;;;;;;;18.00;3.30;;;;;;;9.66;56.61;102595.34;4976169;28;20119;-82
2022/01/17 03:46:11;;;;;;;16.20;2.72;;;;;;;9.81;56.98;102599.28;4976290;28;20150;-82
2022/01/17 03:48:37;;;;;;;10.18;2.22;;;;;;;9.94;58.37;102594.53;4976360;28;20093;-82
2022/01/17 03:51:02;;;;;;;14.18;2.50;;;;;;;10.14;56.37;102596.53;4975063;28;20473;-82
2022/01/17 03:53:28;;;;;;;12.15;3.08;;;;;;;10.04;55.71;102603.00;4975998;28;20038;-82
2022/01/17 03:55:55;;;;;;;13.05;2.25;;;;;;;9.76;56.40;102606.44;4976540;28;20090;-82
2022/01/17 03:58:23;;;;;;;12.35;2.50;;;;;;;9.81;56.63;102599.28;4976041;28;20504;-81
2022/01/17 04:00:49;;;;;;;16.65;3.35;;;;;;;9.92;56.69;102602.44;4975881;28;20022;-82
2022/01/17 04:03:16;;;;;;;14.23;2.50;;;;;;;10.25;56.09;102604.94;4975924;28;20026;-81
2022/01/17 04:05:42;;;;;;;12.27;2.22;;;;;;;9.63;55.77;102607.69;4990940;28;20027;-81
2022/01/17 04:08:08;;;;;;;17.10;2.72;;;;;;;9.56;56.67;102607.03;4975958;28;20497;-82
2022/01/17 04:10:34;;;;;;;10.68;2.75;;;;;;;9.66;56.82;102607.63;4976034;28;20034;-82
2022/01/17 04:13:04;;;;;;;8.30;2.08;;;;;;;9.37;58.77;102601.41;4975826;28;20030;-82
2022/01/17 04:15:35;;;;;;;21.67;3.22;;;;;;;10.22;56.68;102601.56;4975763;28;20019;-81
2022/01/17 04:18:02;;;;;;;9.88;2.65;;;;;;;9.72;56.94;102610.06;4986376;28;20428;-82
2022/01/17 04:20:29;;;;;;;13.18;3.08;;;;;;;9.53;57.25;102610.56;4995087;28;20038;-81
2022/01/17 04:23:01;;;;;;;11.45;2.58;;;;;;;9.46;58.50;102606.41;4994951;28;20062;-81
2022/01/17 04:25:29;;;;;;;18.52;3.20;;;;;;;9.47;58.65;102613.38;4994363;28;20030;-82
2022/01/17 04:27:56;;;;;;;12.80;3.20;;;;;;;9.56;58.16;102612.28;4994956;28;20076;-82
2022/01/17 04:30:22;;;;;;;16.27;2.92;;;;;;;9.35;58.81;102626.81;4994760;28;20041;-81
2022/01/17 04:32:48;;;;;;;10.73;2.53;;;;;;;9.33;58.35;102620.75;4994706;28;20484;-81
2022/01/17 04:35:20;;;;;;;12.82;3.08;;;;;;;9.84;61.29;102617.56;4994913;28;20036;-82
2022/01/17 04:37:48;;;;;;;10.80;2.83;;;;;;;10.59;57.39;102606.53;4994639;28;20113;-82
2022/01/17 04:40:13;;;;;;;8.85;2.40;;;;;;;10.52;55.66;102612.88;4979072;28;20038;-82
2022/01/17 04:42:44;;;;;;;24.80;4.40;;;;;;;10.20;56.31;102604.22;4975262;28;20023;-82
2022/01/17 04:45:15;;;;;;;18.03;2.50;;;;;;;10.19;56.70;102605.16;4975368;28;20034;-81
2022/01/17 04:47:47;;;;;;;12.55;2.92;;;;;;;9.77;56.95;102604.66;4975156;28;20026;-82
2022/01/17 04:50:23;;;;;;;8.93;2.72;;;;;;;9.66;58.00;102612.88;4974946;28;20065;-82
2022/01/17 04:52:50;;;;;;;14.85;2.50;;;;;;;9.91;56.31;102605.09;4974801;28;20034;-82
2022/01/17 04:55:18;;;;;;;9.60;2.20;;;;;;;9.87;55.82;102590.38;4975251;28;20385;-82
2022/01/17 04:57:45;;;;;;;9.88;2.45;;;;;;;9.67;56.78;102597.06;4974982;28;20089;-82
2022/01/17 05:00:13;;;;;;;13.43;3.15;;;;;;;9.51;58.11;102594.03;4975104;28;20022;-82
2022/01/17 05:02:39;;;;;;;12.45;2.53;;;;;;;9.39;57.07;102589.13;4974811;28;20031;-82
2022/01/17 05:05:05;;;;;;;14.65;3.13;;;;;;;9.60;57.10;102586.81;4974586;28;20359;-82
2022/01/17 05:07:33;;;;;;;16.48;3.15;;;;;;;9.77;56.49;102587.16;4974704;28;20111;-82
2022/01/17 05:09:58;;;;;;;15.48;3.85;;;;;;;10.27;57.05;102590.00;4989082;28;20093;-82
2022/01/17 05:12:25;;;;;;;11.75;2.42;;;;;;;10.32;55.65;102595.13;4993934;28;20022;-81
2022/01/17 05:14:52;;;;;;;18.42;3.40;;;;;;;9.69;57.04;102604.88;4993980;28;20057;-81
2022/01/17 05:17:38;;;;;;;15.43;2.63;;;;;;;9.09;58.32;102596.06;4986094;28;20027;-81
2022/01/17 05:20:06;;;;;;;13.20;2.47;;;;;;;9.10;59.39;102601.28;4974584;28;20041;-82
2022/01/17 05:22:35;;;;;;;11.18;3.45;;;;;;;9.31;57.17;102596.34;4973157;28;20065;-82
2022/01/17 05:25:07;;;;;;;13.30;2.85;;;;;;;9.08;58.27;102595.22;4974367;28;20138;-82
2022/01/17 05:27:34;;;;;;;21.02;2.70;;;;;;;8.90;58.25;102593.91;4973118;28;20062;-82
2022/01/17 05:30:00;;;;;;;14.40;3.65;;;;;;;9.35;60.60;102592.75;4973104;28;20031;-82
2022/01/17 05:32:25;;;;;;;14.85;2.80;;;;;;;9.70;60.96;102593.50;4974161;28;20035;-82
2022/01/17 05:34:51;;;;;;;17.13;2.72;;;;;;;10.15;57.56;102598.28;4974188;28;20385;-82
2022/01/17 05:37:16;;;;;;;16.38;2.85;;;;;;;9.90;58.98;102596.38;4973391;28;20158;-82
2022/01/17 05:39:42;;;;;;;13.77;2.05;;;;;;;10.07;56.62;102602.88;4986413;28;20105;-82
2022/01/17 05:42:09;;;;;;;13.40;2.38;;;;;;;10.48;58.02;102592.88;4993681;28;20030;-82
2022/01/17 05:44:35;;;;;;;17.15;3.50;;;;;;;10.54;54.47;102591.81;4993444;28;20145;-82
2022/01/17 05:47:02;;;;;;;8.98;2.10;;;;;;;10.49;54.84;102594.59;4993516;28;20504;-82
2022/01/17 05:49:27;;;;;;;14.20;2.35;;;;;;;10.95;55.40;102602.72;4993487;28;20034;-82
2022/01/17 05:51:53;;;;;;;10.95;2.80;;;;;;;9.99;54.31;102611.00;4993358;28;20034;-82
2022/01/17 05:54:18;;;;;;;10.35;2.53;;;;;;;10.70;57.85;102604.41;4993130;28;20030;-82
2022/01/17 05:56:44;;;;;;;10.02;2.25;;;;;;;10.95;54.68;102608.81;4987485;28;20477;-82
2022/01/17 05:59:10;;;;;;;17.98;3.30;;;;;;;10.81;55.28;102611.06;4992014;28;20042;-82
2022/01/17 06:01:39;;;;;;;7.82;1.90;;;;;;;10.09;54.41;102611.56;4973700;28;20515;-82
2022/01/17 06:04:05;;;;;;;10.48;2.13;;;;;;;10.12;56.06;102611.47;4973144;28;20034;-82
2022/01/17 06:06:30;;;;;;;10.95;2.92;;;;;;;10.42;57.64;102608.84;4973793;28;20385;-82
2022/01/17 06:08:56;;;;;;;13.45;2.97;;;;;;;10.18;54.96;102613.06;4973681;28;20465;-82
2022/01/17 06:11:21;;;;;;;13.57;3.28;;;;;;;9.91;55.79;102608.63;4973704;28;20169;-82
2022/01/17 06:13:46;;;;;;;12.80;2.30;;;;;;;9.71;55.28;102610.94;4973432;28;20030;-82
2022/01/17 06:16:12;;;;;;;9.50;1.73;;;;;;;9.65;54.66;102611.13;4972495;28;20026;-81
2022/01/17 06:18:37;;;;;;;8.80;2.03;;;;;;;10.13;57.37;102615.84;4973442;28;20374;-82
2022/01/17 06:21:03;;;;;;;10.52;2.22;;;;;;;9.81;54.87;102625.50;4972126;28;20030;-81
2022/01/17 06:23:28;;;;;;;11.38;2.17;;;;;;;9.74;53.80;102618.75;4973380;28;20026;-81
2022/01/17 06:25:53;;;;;;;11.70;2.40;;;;;;;9.93;55.83;102624.28;4973343;28;20019;-81
2022/01/17 06:28:19;;;;;;;19.40;2.70;;;;;;;9.64;55.54;102640.91;4973299;28;20035;-82
2022/01/17 06:30:44;;;;;;;15.27;2.38;;;;;;;9.56;54.30;102648.97;4986505;28;20026;-82
2022/01/17 06:33:09;;;;;;;11.25;2.10;;;;;;;9.78;55.44;102657.09;4992589;28;20064;-82
2022/01/17 06:35:35;;;;;;;15.10;2.53;;;;;;;10.11;55.44;102652.63;4992745;28;20081;-82
2022/01/17 06:38:02;;;;;;;6.90;1.80;;;;;;;9.63;54.94;102633.91;4992700;28;20081;-81
2022/01/17 06:40:28;;;;;;;12.48;1.90;;;;;;;9.97;57.43;102638.19;4992605;28;20362;-82
2022/01/17 06:42:54;;;;;;;14.75;2.38;;;;;;;9.91;56.11;102647.97;4992427;28;20072;-80
2022/01/17 06:45:19;;;;;;;10.95;2.10;;;;;;;9.99;55.95;102652.13;4992745;28;20030;-82
2022/01/17 06:47:45;;;;;;;13.25;2.72;;;;;;;9.71;55.13;102652.91;4992741;28;20437;-85
2022/01/17 06:50:11;;;;;;;12.75;2.50;;;;;;;9.25;55.10;102638.47;4991149;28;20034;-83
2022/01/17 06:52:37;;;;;;;9.88;2.90;;;;;;;9.61;55.32;102641.81;4992316;28;20097;-84
2022/01/17 06:55:03;;;;;;;15.73;2.45;;;;;;;9.74;56.95;102652.84;4992397;28;20027;-85
2022/01/17 06:57:29;;;;;;;9.30;2.17;;;;;;;9.73;55.07;102645.88;4992649;28;20154;-84
2022/01/17 06:59:55;;;;;;;9.05;2.33;;;;;;;9.40;56.13;102661.66;4990273;28;20077;-83
2022/01/17 07:02:20;;;;;;;10.27;1.80;;;;;;;10.32;54.48;102701.03;4972666;28;20101;-83
2022/01/17 07:04:46;;;;;;;10.35;2.60;;;;;;;10.76;55.51;102723.34;4972973;28;20114;-82
2022/01/17 07:07:11;;;;;;;12.98;2.10;;;;;;;10.83;53.79;102709.97;4971649;28;20027;-83
2022/01/17 07:09:37;;;;;;;11.40;2.42;;;;;;;10.38;55.09;102707.84;4971617;28;20019;-84
2022/01/17 07:12:04;;;;;;;14.20;2.53;;;;;;;10.99;53.39;102685.81;4975229;28;20366;-84
2022/01/17 07:14:29;;;;;;;17.92;2.92;;;;;;;11.04;54.61;102671.59;4972721;28;20659;-86
2022/01/17 07:16:56;;;;;;;10.23;2.25;;;;;;;11.14;54.67;102666.91;4972951;28;20023;-84
2022/01/17 07:19:21;;;;;;;8.98;2.10;;;;;;;10.97;55.01;102682.38;4989292;28;20142;-82
2022/01/17 07:21:47;;;;;;;5.38;1.55;;;;;;;10.85;55.51;102687.13;4994487;28;20058;-81
2022/01/17 07:24:12;;;;;;;13.48;2.97;;;;;;;10.85;55.31;102692.38;4993374;28;20481;-81
2022/01/17 07:26:38;;;;;;;11.88;2.58;;;;;;;10.82;55.59;102691.59;4991969;28;20049;-81
2022/01/17 07:29:10;;;;;;;13.93;2.70;;;;;;;11.25;64.56;102682.28;4991212;28;20034;-86
2022/01/17 07:31:37;;;;;;;10.18;2.13;;;;;;;12.88;64.08;102684.09;4982288;28;20031;-84
2022/01/17 07:34:03;;;;;;;21.13;3.78;;;;;;;13.81;63.02;102696.84;4986105;28;20623;-81
2022/01/17 07:36:29;;;;;;;17.35;3.75;;;;;;;14.53;61.82;102695.25;4978654;28;20046;-82
2022/01/17 07:38:54;;;;;;;6.43;2.10;;;;;;;15.32;60.22;102679.84;4986300;28;20030;-83
2022/01/17 07:41:19;;;;;;;7.88;2.13;;;;;;;15.73;59.10;102694.53;4971387;28;20173;-84
2022/01/17 07:43:45;;;;;;;11.95;2.00;;;;;;;16.02;58.28;102685.03;4984450;28;20026;-87
2022/01/17 07:51:25;;;;;;;14.35;2.17;;;;;;;16.69;55.27;102688.34;4982695;28;20038;-82
2022/01/17 07:53:51;;;;;;;9.93;2.10;;;;;;;16.74;55.19;102690.72;4982267;28;20489;-82
2022/01/17 07:56:16;;;;;;;13.77;2.42;;;;;;;16.79;55.43;102697.47;4990123;28;20036;-82
2022/01/17 07:58:42;;;;;;;10.15;2.10;;;;;;;16.83;55.85;102696.38;4991589;28;20022;-82
2022/01/17 08:01:08;;;;;;;11.93;2.40;;;;;;;16.88;55.95;102698.75;4991776;28;20026;-83
2022/01/17 08:03:33;;;;;;;11.90;2.10;;;;;;;16.85;56.55;102697.13;4985841;28;20040;-81
2022/01/17 08:05:59;;;;;;;9.93;2.28;;;;;;;16.94;56.33;102708.16;4982048;28;20089;-81
2022/01/17 08:08:25;;;;;;;11.40;2.50;;;;;;;17.00;56.43;102706.03;4979091;28;20420;-84
2022/01/17 08:10:50;;;;;;;8.93;2.22;;;;;;;16.95;56.66;102697.47;4975693;28;20026;-82
2022/01/17 08:13:16;;;;;;;7.68;1.67;;;;;;;17.07;56.12;102685.25;4974305;28;20053;-82
2022/01/17 08:15:43;;;;;;;9.13;1.90;;;;;;;17.20;55.72;102696.00;4975632;28;20034;-87
2022/01/17 08:18:09;;;;;;;7.38;2.10;;;;;;;17.24;55.38;102695.75;4990607;28;20480;-88
2022/01/17 08:20:35;;;;;;;10.20;1.80;;;;;;;17.38;54.80;102702.03;4994457;28;20034;-86
2022/01/17 08:23:01;;;;;;;6.85;2.28;;;;;;;17.29;54.79;102706.06;4990147;28;20104;-88
2022/01/17 08:25:27;;;;;;;10.80;2.05;;;;;;;17.42;54.05;102706.22;4977095;28;20121;-83
2022/01/17 08:27:52;;;;;;;4.82;1.42;;;;;;;17.46;53.68;102707.72;4986408;28;20458;-84
2022/01/17 08:30:18;;;;;;;8.93;2.03;;;;;;;17.50;53.69;102708.41;4994792;28;20429;-85
2022/01/17 08:32:43;;;;;;;7.22;2.20;;;;;;;17.51;53.25;102715.41;4992939;28;20030;-84
2022/01/17 08:35:09;;;;;;;10.43;2.67;;;;;;;17.56;52.89;102710.69;4994539;28;20018;-84
2022/01/17 08:37:35;;;;;;;11.82;2.22;;;;;;;17.61;52.58;102711.22;4986566;28;20085;-86
2022/01/17 08:40:02;;;;;;;11.00;2.67;;;;;;;17.72;52.10;102710.59;4991572;28;20061;-85
2022/01/17 08:42:30;;;;;;;6.38;1.98;;;;;;;17.74;51.89;102727.28;4994374;28;20027;-86
2022/01/17 08:44:56;;;;;;;6.97;2.15;;;;;;;17.75;51.60;102729.88;4987705;28;20470;-84
2022/01/17 08:47:22;;;;;;;6.20;1.75;;;;;;;17.77;51.20;102722.66;4975283;28;20026;-84
2022/01/17 08:49:48;;;;;;;5.78;1.90;;;;;;;17.83;50.72;102730.28;4975057;28;20473;-84
2022/01/17 08:52:15;;;;;;;8.50;2.28;;;;;;;17.88;50.65;102745.06;4981297;28;20057;-83
2022/01/17 08:54:41;;;;;;;5.85;1.58;;;;;;;17.90;50.47;102737.88;4994517;28;20030;-84
2022/01/17 08:57:07;;;;;;;10.52;2.17;;;;;;;17.91;50.47;102745.75;4992530;28;20040;-84
2022/01/17 08:59:32;;;;;;;5.20;1.35;;;;;;;17.99;50.17;102743.47;4994382;28;20027;-84
2022/01/17 09:01:58;;;;;;;5.35;1.80;;;;;;;18.07;50.17;102750.09;4994271;28;20392;-84
2022/01/17 09:04:23;;;;;;;5.90;1.90;;;;;;;18.16;49.85;102750.38;4993953;28;20019;-84
2022/01/17 09:06:49;;;;;;;7.18;2.47;;;;;;;18.19;49.75;102750.19;4994919;28;20041;-84
2022/01/17 09:09:16;;;;;;;6.00;2.38;;;;;;;18.27;49.60;102764.81;4982863;28;20446;-84
2022/01/17 09:11:42;;;;;;;7.30;2.22;;;;;;;18.16;49.74;102766.31;4993935;28;20018;-84
2022/01/17 09:14:08;;;;;;;5.40;1.85;;;;;;;18.32;49.21;102770.69;4994036;28;20033;-84
2022/01/17 09:16:33;;;;;;;8.57;1.98;;;;;;;18.37;49.06;102768.59;4992192;28;20117;-84
2022/01/17 09:19:00;;;;;;;9.65;2.47;;;;;;;18.34;49.09;102779.41;4993960;28;20030;-84
2022/01/17 09:21:26;;;;;;;9.48;1.98;;;;;;;18.33;48.74;102789.19;4993999;28;20026;-84
2022/01/17 09:23:54;;;;;;;5.40;1.38;;;;;;;18.34;48.85;102795.38;4981965;28;20037;-84
2022/01/17 09:26:23;;;;;;;6.63;1.90;;;;;;;18.49;48.37;102799.72;4974409;28;20023;-84
2022/01/17 09:28:49;;;;;;;5.25;1.65;;;;;;;18.50;48.02;102789.94;4973294;28;20488;-84
2022/01/17 09:31:15;;;;;;;7.18;1.55;;;;;;;18.49;48.05;102804.19;4974329;28;20054;-84
2022/01/17 09:33:40;;;;;;;6.07;1.70;;;;;;;18.46;47.72;102799.91;4974018;28;20042;-84
2022/01/17 09:36:06;;;;;;;4.55;1.40;;;;;;;18.42;48.14;102795.72;4974307;28;20085;-84
2022/01/17 09:38:31;;;;;;;5.97;1.80;;;;;;;18.43;47.92;102794.78;4974157;28;20022;-85
2022/01/17 09:40:56;;;;;;;7.22;1.92;;;;;;;18.46;47.82;102802.56;4985421;28;20052;-84
2022/01/17 09:43:22;;;;;;;8.02;2.20;;;;;;;18.63;47.56;102799.69;4991026;28;20027;-85
2022/01/17 09:45:48;;;;;;;5.78;1.80;;;;;;;18.79;47.26;102804.03;4974131;28;20035;-85
2022/01/17 09:48:21;;;;;;;7.55;2.03;;;;;;;19.05;46.63;102806.81;4974042;28;20035;-86
2022/01/17 09:51:00;;;;;;;8.82;2.00;;;;;;;19.35;45.87;102810.13;4990269;28;20062;-84
2022/01/17 09:53:28;;;;;;;5.97;1.67;;;;;;;19.46;45.76;102817.38;4980253;28;20038;-82
2022/01/17 09:56:02;;;;;;;4.22;1.73;;;;;;;19.64;45.41;102809.09;4993685;28;20022;-82
2022/01/17 09:58:28;;;;;;;6.10;1.67;;;;;;;19.76;45.26;102806.47;4989482;28;20026;-82
2022/01/17 10:00:54;;;;;;;5.57;1.95;;;;;;;19.98;45.00;102797.84;4983630;28;20042;-81
2022/01/17 10:03:21;;;;;;;5.88;1.70;;;;;;;20.15;44.60;102799.31;4992794;28;20037;-81
2022/01/17 10:05:47;;;;;;;5.82;1.77;;;;;;;20.19;44.56;102813.28;4976152;28;20026;-81
2022/01/17 10:08:16;;;;;;;8.63;2.08;;;;;;;20.43;43.94;102817.84;4988763;28;20084;-82
2022/01/17 10:10:48;;;;;;;4.32;1.70;;;;;;;20.79;43.24;102819.66;4986707;28;20027;-85
2022/01/17 10:13:34;;;;;;;7.63;2.40;;;;;;;20.91;42.86;102829.47;4984078;28;20022;-82
2022/01/17 10:16:02;;;;;;;8.48;2.45;;;;;;;21.40;41.93;102832.94;4973359;28;20520;-82
2022/01/17 10:18:39;;;;;;;7.40;2.63;;;;;;;22.39;40.14;102850.31;4991636;28;20412;-82
2022/01/17 10:21:20;;;;;;;15.02;2.75;;;;;;;23.41;37.27;102852.75;4992870;28;20030;-82
2022/01/17 10:35:22;;;;;;;7.75;2.50;;;;;;;27.00;31.66;102851.25;4979484;28;20620;-82
2022/01/17 10:38:02;;;;;;;9.35;2.25;;;;;;;27.43;30.85;102862.25;4988222;28;20503;-82
2022/01/17 10:40:32;;;;;;;10.77;2.97;;;;;;;27.84;29.90;102885.03;4973334;28;20543;-82
2022/01/17 10:42:59;;;;;;;12.05;2.78;;;;;;;28.02;29.81;102879.59;4973193;28;20038;-82
2022/01/17 10:45:33;;;;;;;12.65;2.72;;;;;;;28.34;29.54;102861.84;4984514;28;20053;-82
2022/01/17 10:48:00;;;;;;;6.68;2.30;;;;;;;28.39;29.44;102864.91;4988236;28;20031;-82
2022/01/17 10:50:36;;;;;;;10.05;2.53;;;;;;;28.63;29.21;102860.63;4991636;28;20031;-82
2022/01/17 10:53:05;;;;;;;9.85;2.08;;;;;;;28.74;29.25;102840.56;4992287;28;20097;-82
2022/01/17 10:55:33;;;;;;;7.85;2.72;;;;;;;28.84;29.03;102847.50;4979824;28;20397;-82
2022/01/17 10:58:12;;;;;;;8.20;2.55;;;;;;;29.01;29.38;102847.50;4989175;28;20481;-82
2022/01/17 11:00:39;;;;;;;7.32;2.42;;;;;;;29.11;29.43;102842.81;4972986;28;20378;-82
2022/01/17 11:03:10;;;;;;;9.30;2.75;;;;;;;29.19;28.78;102847.41;4975336;28;20085;-82
2022/01/17 11:05:47;;;;;;;7.80;2.50;;;;;;;29.41;28.59;102845.88;4991283;28;20023;-82
2022/01/17 11:08:16;;;;;;;11.20;2.58;;;;;;;29.58;28.42;102849.38;4972842;28;20031;-82
2022/01/17 11:10:44;;;;;;;7.70;2.30;;;;;;;29.76;28.22;102824.84;4973666;28;20085;-82
2022/01/17 11:13:13;;;;;;;6.88;2.15;;;;;;;29.72;28.30;102842.47;4982606;28;20035;-82
2022/01/17 11:15:41;;;;;;;9.55;2.38;;;;;;;29.73;28.13;102850.41;4973502;28;20077;-82
2022/01/17 11:18:17;;;;;;;7.03;2.47;;;;;;;29.85;28.58;102834.66;4976647;28;20023;-82
2022/01/17 11:20:42;;;;;;;7.70;2.00;;;;;;;29.77;28.71;102826.56;4972944;28;20078;-82
2022/01/17 11:23:08;;;;;;;8.65;2.38;;;;;;;29.78;28.72;102825.53;4981880;28;20436;-82
2022/01/17 11:25:36;;;;;;;8.30;2.20;;;;;;;29.71;28.57;102835.34;4991362;28;20026;-82
2022/01/17 11:28:05;;;;;;;7.82;2.97;;;;;;;29.67;28.37;102826.72;4992235;28;20018;-82
2022/01/17 11:30:34;;;;;;;7.03;2.30;;;;;;;29.60;29.01;102818.44;4976376;28;20066;-82
2022/01/17 11:33:03;;;;;;;5.72;1.98;;;;;;;29.41;29.21;102826.94;4972919;28;20022;-82
2022/01/17 11:35:30;;;;;;;4.60;2.00;;;;;;;29.32;29.59;102820.66;4988039;28;20030;-82
2022/01/17 11:37:58;;;;;;;10.98;2.50;;;;;;;29.22;29.62;102822.69;4995084;28;20480;-82
2022/01/17 11:40:43;;;;;;;8.20;2.58;;;;;;;29.21;29.81;102827.28;4981880;28;20034;-82
2022/01/17 11:43:17;;;;;;;8.35;2.47;;;;;;;29.15;29.80;102825.25;4985354;28;20114;-86
2022/01/17 11:45:44;;;;;;;7.18;3.30;;;;;;;28.94;29.93;102828.41;4993965;28;20038;-84
2022/01/17 11:48:18;;;;;;;8.23;2.90;;;;;;;28.80;30.04;102816.41;4995825;28;20415;-84
2022/01/17 11:50:46;;;;;;;9.88;2.20;;;;;;;28.68;30.10;102820.44;4984849;28;20027;-84